Time;durP1;ratioP1;P1;durP2;ratioP2;P2;SDS_P1;SDS_P2;PMS_P1;PMS_P2;Temp;Humidity;BMP_temperature;BMP_pressure;BME280_temperature;BME280_humidity;BME280_pressure;Samples;Min_cycle;Max_cycle;Signal;HPM_P1;HPM_P2
2021/06/23 00:01:09;;;;;;;;;28.00;28.00;;;;;27.55;53.44;98252.28;4945239;28;104831;-82
2021/06/23 00:03:37;;;;;;;;;27.67;26.67;;;;;27.51;52.94;98243.75;4915926;28;102497;-82
2021/06/23 00:06:04;;;;;;;;;29.67;26.67;;;;;27.61;53.00;98269.59;4921932;28;104046;-82
2021/06/23 00:08:34;;;;;;;;;24.67;22.33;;;;;27.53;53.27;98254.53;4923842;28;102489;-81
2021/06/23 00:11:13;;;;;;;;;26.00;25.00;;;;;27.60;53.03;98273.53;4930550;28;103095;-82
2021/06/23 00:13:45;;;;;;;;;25.33;23.00;;;;;27.53;53.38;98271.22;4925852;28;102200;-82
2021/06/23 00:16:22;;;;;;;;;29.67;28.00;;;;;27.57;52.87;98280.53;4929268;28;103635;-82
2021/06/23 00:18:55;;;;;;;;;26.00;23.50;;;;;27.54;53.37;98274.81;4933102;28;102662;-82
2021/06/23 00:21:31;;;;;;;;;24.33;22.00;;;;;27.59;53.08;98283.00;4953654;28;102127;-82
2021/06/23 00:24:06;;;;;;;;;25.33;24.00;;;;;27.58;53.25;98286.91;4936272;28;109469;-81
2021/06/23 00:26:43;;;;;;;;;23.67;23.00;;;;;27.59;52.95;98294.13;4931594;28;108638;-81
2021/06/23 00:29:15;;;;;;;;;28.33;27.00;;;;;27.49;52.96;98290.47;4921435;28;102589;-81
2021/06/23 00:31:48;;;;;;;;;28.33;24.67;;;;;27.56;52.97;98292.78;4932086;28;102506;-81
2021/06/23 00:34:27;;;;;;;;;27.67;26.67;;;;;27.57;53.06;98301.94;4911877;28;104615;-81
2021/06/23 00:37:00;;;;;;;;;25.00;24.00;;;;;27.57;53.34;98299.16;4929171;28;104339;-82
2021/06/23 00:39:34;;;;;;;;;22.33;21.33;;;;;27.48;53.17;98285.22;4921174;28;102516;-82
2021/06/23 00:42:09;;;;;;;;;23.00;21.00;;;;;27.57;52.97;98293.59;4924983;28;102771;-82
2021/06/23 00:44:40;;;;;;;;;22.33;19.67;;;;;27.51;53.28;98293.72;4935394;28;102147;-82
2021/06/23 00:47:08;;;;;;;;;24.67;24.00;;;;;27.55;53.25;98304.22;4932348;28;108805;-82
2021/06/23 00:49:36;;;;;;;;;20.33;19.33;;;;;27.47;52.88;98291.88;4931095;28;102239;-82
2021/06/23 00:52:04;;;;;;;;;30.33;23.67;;;;;27.51;52.91;98301.28;4926024;28;102500;-82
2021/06/23 00:54:31;;;;;;;;;23.33;21.00;;;;;27.48;53.34;98296.34;4932471;28;102092;-82
2021/06/23 00:56:59;;;;;;;;;24.33;20.67;;;;;27.51;52.89;98298.50;4936495;28;104147;-82
2021/06/23 00:59:29;;;;;;;;;22.33;21.33;;;;;27.52;53.01;98311.22;4912620;28;102203;-82
2021/06/23 01:01:56;;;;;;;;;27.33;23.67;;;;;27.40;52.98;98286.81;4902297;28;102422;-81
2021/06/23 01:04:24;;;;;;;;;25.33;24.00;;;;;27.45;53.41;98292.22;4906973;28;102467;-81
2021/06/23 01:06:51;;;;;;;;;20.67;19.33;;;;;27.44;53.36;98287.78;4902480;28;104032;-82
2021/06/23 01:09:22;;;;;;;;;26.33;26.00;;;;;27.51;53.24;98292.94;4869868;28;102334;-81
2021/06/23 01:12:23;;;;;;;;;22.67;21.67;;;;;27.52;53.00;98300.94;4918657;28;102524;-82
2021/06/23 01:14:59;;;;;;;;;20.67;20.67;;;;;27.45;53.11;98286.66;4849042;28;102203;-81
2021/06/23 01:17:36;;;;;;;;;23.33;21.33;;;;;27.45;53.19;98295.00;4937470;28;102280;-82
2021/06/23 01:20:14;;;;;;;;;23.67;21.33;;;;;27.49;53.06;98304.34;4925515;28;102653;-81
2021/06/23 01:22:51;;;;;;;;;23.33;23.00;;;;;27.40;53.32;98297.91;4912881;28;103895;-82
2021/06/23 01:25:23;;;;;;;;;23.00;20.00;;;;;27.41;53.21;98310.66;4913513;28;104496;-81
2021/06/23 01:28:01;;;;;;;;;23.00;21.67;;;;;27.41;53.06;98305.09;4926916;28;103576;-82
2021/06/23 01:30:36;;;;;;;;;25.33;23.33;;;;;27.45;53.33;98314.44;4916164;28;102188;-82
2021/06/23 01:33:10;;;;;;;;;24.67;20.00;;;;;27.47;52.78;98320.47;4914467;28;105273;-82
2021/06/23 01:35:48;;;;;;;;;20.67;19.67;;;;;27.42;52.91;98311.47;4922567;28;105928;-84
2021/06/23 01:38:25;;;;;;;;;19.33;18.67;;;;;27.39;52.94;98312.91;4846973;28;107727;-82
2021/06/23 01:41:03;;;;;;;;;22.67;20.67;;;;;27.38;53.16;98311.28;4951552;28;104076;-80
2021/06/23 01:43:36;;;;;;;;;24.67;21.67;;;;;27.45;53.19;98321.94;4937055;28;102722;-81
2021/06/23 01:46:12;;;;;;;;;22.33;19.33;;;;;27.37;52.79;98318.00;4935555;28;104899;-82
2021/06/23 01:48:59;;;;;;;;;20.33;20.33;;;;;27.44;52.90;98337.78;4913985;28;108345;-82
2021/06/23 01:51:30;;;;;;;;;22.67;20.00;;;;;27.46;53.24;98341.09;4849683;28;102326;-82
2021/06/23 01:53:57;;;;;;;;;22.00;19.33;;;;;27.43;53.31;98338.09;4933212;28;102384;-82
2021/06/23 01:56:24;;;;;;;;;23.00;20.67;;;;;27.35;53.20;98333.31;4940276;28;102168;-82
2021/06/23 01:58:52;;;;;;;;;19.67;18.67;;;;;27.39;52.87;98335.13;4902390;28;104458;-82
2021/06/23 02:01:24;;;;;;;;;15.33;14.33;;;;;27.41;53.00;98337.59;4916590;28;102722;-81
2021/06/23 02:03:54;;;;;;;;;20.00;19.00;;;;;27.38;52.89;98336.25;4918576;28;102468;-82
2021/06/23 02:06:58;;;;;;;;;18.50;18.50;;;;;27.42;52.93;98340.06;4932671;28;102226;-81
2021/06/23 02:09:51;;;;;;;;;17.67;17.00;;;;;27.34;52.99;98326.94;4879702;28;109152;-82
2021/06/23 02:12:24;;;;;;;;;19.67;18.00;;;;;27.42;52.63;98351.16;4897063;28;102713;-83
2021/06/23 02:14:53;;;;;;;;;21.00;19.00;;;;;27.35;52.63;98339.69;4936803;28;103055;-82
2021/06/23 02:17:22;;;;;;;;;20.67;19.00;;;;;27.33;53.27;98330.06;4902837;28;102805;-82
2021/06/23 02:19:50;;;;;;;;;20.33;18.33;;;;;27.39;53.13;98354.56;4937767;28;103199;-82
2021/06/23 02:22:19;;;;;;;;;21.33;20.00;;;;;27.34;52.96;98342.78;4925729;28;104715;-83
2021/06/23 02:24:48;;;;;;;;;17.67;16.33;;;;;27.37;53.02;98354.09;4914538;28;102212;-82
2021/06/23 02:27:15;;;;;;;;;18.67;18.33;;;;;27.38;52.93;98355.72;4917967;28;102832;-82
2021/06/23 02:29:44;;;;;;;;;18.33;18.00;;;;;27.37;53.27;98356.03;4902911;28;108805;-82
2021/06/23 02:32:13;;;;;;;;;18.33;17.00;;;;;27.32;52.76;98351.44;4935898;28;102708;-82
2021/06/23 02:34:41;;;;;;;;;17.67;16.67;;;;;27.29;52.78;98342.94;4924669;28;102189;-81
2021/06/23 02:37:09;;;;;;;;;19.00;15.33;;;;;27.26;53.13;98347.13;4934462;28;102571;-82
2021/06/23 02:39:37;;;;;;;;;17.67;16.67;;;;;27.36;53.10;98357.19;4926544;28;104411;-82
2021/06/23 02:42:05;;;;;;;;;19.33;17.67;;;;;27.35;53.25;98361.91;4934097;28;102445;-82
2021/06/23 02:44:32;;;;;;;;;14.00;13.67;;;;;27.24;52.92;98352.19;4918035;28;104971;-82
2021/06/23 02:46:59;;;;;;;;;18.67;18.67;;;;;27.33;52.83;98385.59;4925335;28;102943;-82
2021/06/23 02:49:27;;;;;;;;;19.33;17.33;;;;;27.28;53.09;98378.19;4931017;28;103963;-82
2021/06/23 02:51:56;;;;;;;;;18.33;17.00;;;;;27.32;53.06;98379.22;4929608;28;104295;-82
2021/06/23 02:54:26;;;;;;;;;18.00;15.67;;;;;27.33;53.05;98383.59;4911535;28;103449;-82
2021/06/23 02:56:53;;;;;;;;;16.33;15.67;;;;;27.33;52.95;98391.13;4943888;28;102465;-82
2021/06/23 02:59:21;;;;;;;;;15.33;13.67;;;;;27.24;53.03;98382.75;4931115;28;103901;-82
2021/06/23 03:01:48;;;;;;;;;18.67;16.33;;;;;27.29;52.99;98401.25;4921937;28;103664;-82
2021/06/23 03:04:16;;;;;;;;;20.33;19.00;;;;;27.30;52.56;98391.75;4934159;28;103509;-81
2021/06/23 03:06:43;;;;;;;;;19.00;17.33;;;;;27.21;52.83;98377.81;4950546;28;102574;-82
2021/06/23 03:09:10;;;;;;;;;14.67;13.67;;;;;27.23;52.74;98385.81;4934424;28;103738;-82
2021/06/23 03:11:42;;;;;;;;;18.67;16.67;;;;;27.27;52.93;98390.44;4952055;28;104414;-82
2021/06/23 03:14:09;;;;;;;;;17.33;16.00;;;;;27.25;52.80;98391.88;4925460;28;107516;-82
2021/06/23 03:16:36;;;;;;;;;17.33;15.00;;;;;27.30;52.47;98402.84;4930214;28;102547;-82
2021/06/23 03:19:04;;;;;;;;;18.33;16.33;;;;;27.24;52.60;98402.19;4945501;28;104129;-82
2021/06/23 03:21:31;;;;;;;;;15.33;15.00;;;;;27.24;52.79;98401.34;4923915;28;102224;-82
2021/06/23 03:23:59;;;;;;;;;18.00;16.33;;;;;27.23;52.76;98399.72;4935620;28;102048;-82
2021/06/23 03:26:28;;;;;;;;;16.33;16.00;;;;;27.18;52.64;98391.50;4929422;28;102590;-82
2021/06/23 03:28:55;;;;;;;;;15.67;14.67;;;;;27.23;52.64;98408.84;4959426;28;102911;-81
2021/06/23 03:31:22;;;;;;;;;15.33;15.33;;;;;27.24;52.74;98407.72;4940770;28;102534;-82
2021/06/23 03:33:51;;;;;;;;;15.33;14.67;;;;;27.26;52.47;98408.22;4911564;28;102106;-81
2021/06/23 03:36:19;;;;;;;;;15.00;12.67;;;;;27.28;52.71;98413.47;4942809;28;102243;-83
2021/06/23 03:38:46;;;;;;;;;17.33;17.00;;;;;27.17;52.75;98401.78;4938811;28;104710;-81
2021/06/23 03:41:13;;;;;;;;;13.33;12.33;;;;;27.18;52.70;98417.31;4944025;28;103048;-82
2021/06/23 03:43:40;;;;;;;;;16.00;15.00;;;;;27.22;52.71;98428.59;4936586;28;103216;-82
2021/06/23 03:46:07;;;;;;;;;17.00;16.67;;;;;27.16;52.64;98430.66;4930495;28;102482;-82
2021/06/23 03:48:35;;;;;;;;;15.33;13.00;;;;;27.23;52.77;98435.81;4922738;28;103338;-81
2021/06/23 03:51:02;;;;;;;;;17.33;15.67;;;;;27.18;52.65;98433.97;4931316;28;104282;-81
2021/06/23 03:53:30;;;;;;;;;17.00;14.33;;;;;27.23;52.37;98441.34;4946840;28;102140;-82
2021/06/23 03:56:00;;;;;;;;;17.00;16.00;;;;;27.15;52.22;98422.66;4929299;28;102256;-82
2021/06/23 03:58:27;;;;;;;;;13.00;12.33;;;;;27.22;52.38;98445.25;4919202;28;103992;-82
2021/06/23 04:00:54;;;;;;;;;15.00;14.00;;;;;27.13;52.67;98439.63;4935499;28;104057;-82
2021/06/23 04:03:21;;;;;;;;;17.00;15.00;;;;;27.20;52.46;98442.00;4932655;28;102185;-82
2021/06/23 04:05:49;;;;;;;;;15.67;14.00;;;;;27.13;52.53;98428.53;4948801;28;102625;-82
2021/06/23 04:08:16;;;;;;;;;15.67;13.67;;;;;27.16;52.50;98433.44;4956998;28;104077;-82
2021/06/23 04:10:43;;;;;;;;;15.00;15.00;;;;;27.20;52.22;98431.69;4944633;28;102401;-82
2021/06/23 04:13:10;;;;;;;;;12.33;12.00;;;;;27.20;52.33;98442.78;4940518;28;102479;-82
2021/06/23 04:15:38;;;;;;;;;12.33;12.33;;;;;27.10;52.17;98426.38;4927147;28;105377;-81
2021/06/23 04:18:05;;;;;;;;;14.00;12.67;;;;;27.16;52.05;98436.22;4940979;28;104315;-83
2021/06/23 04:20:32;;;;;;;;;12.67;12.67;;;;;27.12;52.02;98420.50;4946730;28;102254;-82
2021/06/23 04:22:59;;;;;;;;;12.33;12.00;;;;;27.08;52.17;98423.91;4943824;28;102563;-82
2021/06/23 04:25:27;;;;;;;;;13.00;13.00;;;;;27.14;52.07;98432.13;4938808;28;102399;-81
2021/06/23 04:27:54;;;;;;;;;15.00;13.00;;;;;27.08;52.15;98423.91;4931904;28;104336;-82
2021/06/23 04:30:21;;;;;;;;;13.33;13.33;;;;;27.16;52.13;98436.22;4929406;28;102518;-81
2021/06/23 04:32:49;;;;;;;;;13.00;12.00;;;;;27.13;52.10;98441.59;4938267;28;102211;-83
2021/06/23 04:35:16;;;;;;;;;16.33;14.00;;;;;27.14;51.61;98427.41;4961923;28;102832;-81
2021/06/23 04:37:43;;;;;;;;;13.33;12.33;;;;;27.12;51.56;98440.75;4937279;28;105532;-81
2021/06/23 04:40:13;;;;;;;;;13.00;12.33;;;;;27.07;52.24;98427.00;4937286;28;102195;-81
2021/06/23 04:42:40;;;;;;;;;14.33;13.67;;;;;27.11;52.23;98436.34;4914971;28;102352;-81
2021/06/23 04:45:09;;;;;;;;;11.67;11.00;;;;;27.14;51.92;98455.16;4931493;28;102665;-82
2021/06/23 04:47:37;;;;;;;;;13.00;13.00;;;;;27.19;51.62;98460.59;4922872;28;103037;-81
2021/06/23 04:50:06;;;;;;;;;11.00;11.00;;;;;27.12;52.02;98457.41;4939178;28;102256;-82
2021/06/23 04:52:33;;;;;;;;;12.00;12.00;;;;;27.15;51.94;98456.81;4940129;28;102387;-81
2021/06/23 04:55:00;;;;;;;;;10.67;10.00;;;;;27.12;51.74;98445.47;4963406;28;102444;-81
2021/06/23 04:57:28;;;;;;;;;10.33;10.33;;;;;27.16;51.68;98469.53;4890752;28;107127;-81
2021/06/23 04:59:55;;;;;;;;;13.33;12.00;;;;;27.15;51.47;98462.34;4922341;28;103551;-81
2021/06/23 05:02:22;;;;;;;;;11.00;9.33;;;;;27.07;51.37;98443.66;4927101;28;103287;-81
2021/06/23 05:04:49;;;;;;;;;11.33;11.33;;;;;27.17;51.40;98448.97;4936189;28;102658;-82
2021/06/23 05:07:17;;;;;;;;;10.33;10.33;;;;;27.07;51.75;98454.75;4921077;28;108769;-81
2021/06/23 05:09:45;;;;;;;;;10.67;10.00;;;;;27.10;51.46;98462.47;4960102;28;103148;-82
2021/06/23 05:12:14;;;;;;;;;12.00;11.33;;;;;27.15;51.38;98467.09;4935362;28;102474;-81
2021/06/23 05:14:41;;;;;;;;;12.67;11.67;;;;;27.11;51.51;98461.31;4926810;28;102269;-81
2021/06/23 05:17:08;;;;;;;;;10.67;9.00;;;;;27.10;51.54;98462.47;4926589;28;104296;-81
2021/06/23 05:19:36;;;;;;;;;10.33;10.33;;;;;27.14;51.40;98471.00;4932037;28;102658;-80
2021/06/23 05:22:04;;;;;;;;;12.00;11.67;;;;;27.04;51.65;98455.38;4935412;28;102507;-81
2021/06/23 05:24:31;;;;;;;;;13.33;11.67;;;;;27.05;51.53;98454.25;4938344;28;102675;-81
2021/06/23 05:26:59;;;;;;;;;8.33;7.33;;;;;27.07;51.24;98466.69;4946777;28;104023;-81
2021/06/23 05:29:26;;;;;;;;;10.33;10.33;;;;;27.12;51.46;98473.25;4952062;28;102525;-81
2021/06/23 05:31:53;;;;;;;;;11.00;10.33;;;;;27.08;51.07;98482.19;4930903;28;102673;-80
2021/06/23 05:34:21;;;;;;;;;7.00;6.67;;;;;27.13;51.27;98486.00;4936731;28;102221;-82
2021/06/23 05:36:48;;;;;;;;;12.33;10.00;;;;;27.01;51.44;98472.66;4950455;28;103786;-82
2021/06/23 05:39:15;;;;;;;;;12.00;9.33;;;;;27.11;51.34;98493.84;4953052;28;103099;-81
2021/06/23 05:41:42;;;;;;;;;11.00;10.00;;;;;27.11;51.40;98505.72;4930409;28;102824;-81
2021/06/23 05:44:10;;;;;;;;;9.00;9.00;;;;;27.05;51.06;98493.13;4935939;28;102139;-82
2021/06/23 05:46:37;;;;;;;;;8.67;8.67;;;;;27.04;51.18;98494.25;4936922;28;105069;-82
2021/06/23 05:49:04;;;;;;;;;10.00;8.67;;;;;27.09;51.47;98505.22;4929330;28;102545;-81
2021/06/23 05:51:31;;;;;;;;;8.00;8.00;;;;;27.10;51.01;98514.38;4947053;28;102403;-81
2021/06/23 05:53:59;;;;;;;;;9.00;8.33;;;;;27.08;51.34;98523.00;4950778;28;102570;-82
2021/06/23 05:56:26;;;;;;;;;9.33;8.67;;;;;27.03;51.03;98521.16;4933703;28;104425;-82
2021/06/23 05:58:54;;;;;;;;;10.67;8.67;;;;;27.05;51.30;98529.19;4940297;28;102388;-81
2021/06/23 06:01:22;;;;;;;;;10.33;10.00;;;;;27.02;51.32;98519.53;4936396;28;102483;-82
2021/06/23 06:03:49;;;;;;;;;9.00;8.33;;;;;27.04;51.06;98528.38;4957521;28;102250;-81
2021/06/23 06:12:10;;;;;;;;;7.00;7.00;;;;;27.02;51.02;98527.84;5392046;23;103233;31
2021/06/23 06:14:52;;;;;;;;;9.33;8.00;;;;;27.08;51.13;98540.50;4790934;28;104137;-81
2021/06/23 06:17:36;;;;;;;;;10.00;8.67;;;;;27.05;51.24;98534.75;4774973;28;108133;-78
2021/06/23 06:20:20;;;;;;;;;6.67;6.67;;;;;27.05;51.31;98540.31;4807302;29;101845;-81
2021/06/23 06:23:02;;;;;;;;;8.00;8.00;;;;;27.07;50.93;98547.16;4765083;28;101352;-79
2021/06/23 06:25:43;;;;;;;;;7.67;7.00;;;;;27.05;51.04;98556.97;4840955;28;101672;-79
2021/06/23 06:28:26;;;;;;;;;6.00;6.00;;;;;27.04;50.87;98555.31;4813225;28;108107;-80
2021/06/23 06:31:07;;;;;;;;;9.67;6.67;;;;;27.00;51.19;98548.72;4768508;28;102600;-80
2021/06/23 06:33:51;;;;;;;;;7.33;7.00;;;;;26.95;51.17;98540.50;4843889;28;101370;-79
2021/06/23 06:36:19;;;;;;;;;9.67;8.33;;;;;27.00;51.05;98557.06;4826146;29;101978;-79
2021/06/23 06:38:46;;;;;;;;;9.00;8.00;;;;;26.98;51.22;98550.97;4834746;28;106225;-80
2021/06/23 06:41:14;;;;;;;;;8.67;8.67;;;;;26.99;50.80;98552.63;4818343;29;101951;-80
2021/06/23 06:43:42;;;;;;;;;6.33;6.33;;;;;26.94;50.88;98549.94;4830494;28;102174;-80
2021/06/23 06:46:10;;;;;;;;;8.33;8.00;;;;;27.01;50.86;98561.47;4834058;28;101352;-82
2021/06/23 06:48:51;;;;;;;;;7.00;7.00;;;;;26.96;50.96;98561.59;4773990;29;108062;-82
2021/06/23 06:51:32;;;;;;;;;8.33;8.00;;;;;26.95;50.85;98559.94;4752839;29;109531;-83
2021/06/23 06:54:12;;;;;;;;;9.00;8.00;;;;;26.98;50.98;98567.63;4801239;29;101882;-80
2021/06/23 06:56:53;;;;;;;;;9.00;7.00;;;;;26.94;50.78;98552.72;4805189;29;102177;-80
2021/06/23 06:59:34;;;;;;;;;7.33;7.33;;;;;26.91;50.97;98550.59;4832591;29;101932;-82
2021/06/23 07:02:15;;;;;;;;;8.67;7.67;;;;;26.91;50.90;98554.19;4842872;28;102477;-82
2021/06/23 07:04:56;;;;;;;;;6.00;5.67;;;;;26.97;50.89;98574.34;4832657;29;102584;-81
2021/06/23 07:07:37;;;;;;;;;9.00;8.00;;;;;26.96;50.63;98575.47;4837329;29;102370;-82
2021/06/23 07:10:18;;;;;;;;;9.33;7.67;;;;;26.94;51.08;98572.97;4798797;29;102017;-80
2021/06/23 07:12:59;;;;;;;;;7.33;7.00;;;;;26.96;50.85;98575.47;4819472;28;101225;-79
2021/06/23 07:38:31;;;;;;;;;7.33;6.00;;;;;27.00;50.59;98615.34;5361220;23;103023;-83
2021/06/23 07:46:57;;;;;;;;;6.67;6.00;;;;;26.94;51.00;98617.38;4160585;26;102387;-83
2021/06/23 07:54:54;;;;;;;;;7.33;7.00;;;;;26.88;50.67;98609.47;4838401;28;104204;-82
2021/06/23 08:10:07;;;;;;;;;6.00;5.00;;;;;26.95;50.93;98604.34;4744565;28;103281;-87
2021/06/23 08:13:00;;;;;;;;;6.33;6.33;;;;;26.97;50.84;98605.66;5222675;23;103340;-87
2021/06/23 08:15:45;;;;;;;;;6.33;6.33;;;;;26.94;50.75;98599.91;4796239;28;101704;-81
2021/06/23 08:18:14;;;;;;;;;7.00;5.67;;;;;26.92;50.33;98599.41;4836064;28;102038;-81
2021/06/23 08:20:42;;;;;;;;;9.00;8.00;;;;;26.95;50.50;98601.56;4866742;28;101258;-80
2021/06/23 08:23:11;;;;;;;;;6.67;6.67;;;;;26.97;50.45;98602.09;4873082;28;101858;-80
2021/06/23 08:25:41;;;;;;;;;6.67;6.33;;;;;26.99;50.72;98602.59;4830273;28;101992;-81
2021/06/23 08:28:23;;;;;;;;;8.00;7.33;;;;;26.97;50.35;98599.31;4815720;28;107927;-81
2021/06/23 08:31:03;;;;;;;;;6.00;5.33;;;;;27.01;50.50;98612.28;4817600;28;101949;-80
2021/06/23 08:33:44;;;;;;;;;7.00;7.00;;;;;26.98;50.39;98604.53;4817341;29;101901;-81
2021/06/23 08:36:25;;;;;;;;;6.67;6.00;;;;;26.99;50.56;98605.38;4842475;28;102273;-76
2021/06/23 08:38:54;;;;;;;;;6.33;6.00;;;;;27.01;50.77;98612.28;4815936;28;101881;-82
2021/06/23 08:41:36;;;;;;;;;4.33;4.00;;;;;26.95;50.51;98610.72;4776195;28;103908;-82
2021/06/23 08:54:58;;;;;;;;;7.00;6.33;;;;;26.98;50.75;98612.03;5765468;23;103172;-85
2021/06/23 08:57:39;;;;;;;;;6.00;6.00;;;;;27.05;50.99;98618.03;5408466;23;102502;-85
2021/06/23 09:03:16;;;;;;;;;5.33;5.33;;;;;26.99;50.71;98619.25;5849935;23;103031;-83
2021/06/23 09:08:39;;;;;;;;;7.50;7.50;;;;;26.99;50.60;98622.84;5965772;23;103006;-86
2021/06/23 09:14:40;;;;;;;;;5.33;5.33;;;;;27.02;50.46;98624.16;5636506;23;102917;-80
2021/06/23 09:17:14;;;;;;;;;5.67;5.67;;;;;27.09;50.43;98635.69;4762226;29;102041;-80
2021/06/23 09:20:00;;;;;;;;;5.00;5.00;;;;;27.04;50.44;98624.69;4821438;28;102408;-81
2021/06/23 09:22:36;;;;;;;;;5.00;5.00;;;;;27.08;50.46;98634.88;4828971;28;107254;-80
2021/06/23 09:25:10;;;;;;;;;5.67;5.67;;;;;27.10;50.63;98636.53;4817652;29;101606;-80
2021/06/23 09:27:49;;;;;;;;;9.00;7.00;;;;;27.06;50.58;98631.56;4831191;28;101799;-81
2021/06/23 09:30:38;;;;;;;;;7.67;5.67;;;;;27.04;50.86;98628.31;4774594;29;101695;-80
2021/06/23 09:33:24;;;;;;;;;7.00;6.00;;;;;27.01;50.60;98625.31;4799460;29;104073;-81
2021/06/23 09:36:09;;;;;;;;;7.00;7.00;;;;;27.01;50.65;98626.16;4761421;29;103895;-81
2021/06/23 09:38:50;;;;;;;;;7.67;6.00;;;;;27.10;50.71;98642.09;4809133;28;101732;-81
2021/06/23 09:41:37;;;;;;;;;6.00;5.00;;;;;27.05;50.52;98632.72;4755602;29;102682;-81
2021/06/23 09:44:18;;;;;;;;;6.00;6.00;;;;;27.10;50.43;98637.34;4793857;28;104860;-81
2021/06/23 09:46:59;;;;;;;;;7.00;7.00;;;;;27.03;50.75;98626.66;4809046;29;102012;-81
2021/06/23 09:49:45;;;;;;;;;7.00;6.67;;;;;27.11;50.56;98640.97;4822026;28;102937;-82
2021/06/23 09:52:26;;;;;;;;;6.67;6.00;;;;;27.06;50.68;98645.44;4788497;29;101524;-80
2021/06/23 09:55:07;;;;;;;;;7.67;7.33;;;;;27.12;50.75;98645.34;4788392;29;103815;-82
2021/06/23 09:58:09;;;;;;;;;7.00;7.00;;;;;27.13;50.85;98658.94;4821807;28;102916;-82
2021/06/23 10:01:06;;;;;;;;;6.33;5.67;;;;;27.06;50.45;98653.78;4763562;28;102049;-82
2021/06/23 10:04:01;;;;;;;;;6.00;6.00;;;;;27.14;50.57;98663.38;4751563;29;102020;-82
2021/06/23 10:06:45;;;;;;;;;6.33;6.33;;;;;27.15;50.57;98672.53;4760172;28;108553;-81
2021/06/23 10:09:28;;;;;;;;;6.00;5.33;;;;;27.12;50.36;98662.84;4771623;29;102285;-79
2021/06/23 10:12:02;;;;;;;;;7.67;5.67;;;;;27.06;50.58;98639.09;4810039;29;102111;-77
2021/06/23 10:14:32;;;;;;;;;6.00;6.00;;;;;27.09;50.93;98652.34;4763452;29;103747;-81
2021/06/23 10:17:13;;;;;;;;;6.00;6.00;;;;;27.14;50.73;98660.59;4775286;29;103648;-81
2021/06/23 10:19:54;;;;;;;;;5.33;5.33;;;;;27.13;50.74;98656.16;4816524;28;101795;-81
2021/06/23 10:22:35;;;;;;;;;5.33;5.33;;;;;27.14;50.57;98659.75;4746487;29;102400;-81
2021/06/23 10:25:17;;;;;;;;;6.33;6.33;;;;;27.17;50.53;98659.13;4804882;29;103338;-80
2021/06/23 10:27:58;;;;;;;;;5.67;5.67;;;;;27.16;50.76;98658.31;4813276;29;107999;-82
2021/06/23 10:30:39;;;;;;;;;5.67;5.67;;;;;27.09;50.46;98644.03;4822939;29;102259;-81
2021/06/23 10:33:20;;;;;;;;;5.67;4.67;;;;;27.15;50.49;98662.25;4790846;29;101954;-79
2021/06/23 10:36:01;;;;;;;;;5.00;4.33;;;;;27.12;50.77;98653.69;4779903;29;101883;-81
2021/06/23 10:38:42;;;;;;;;;4.33;4.33;;;;;27.20;50.42;98656.56;4809775;29;103768;-81
2021/06/23 10:41:11;;;;;;;;;5.33;5.00;;;;;27.16;50.52;98652.75;4800712;29;102108;-80
2021/06/23 10:44:20;;;;;;;;;6.33;6.33;;;;;27.22;50.73;98656.28;4812689;29;101613;-82
2021/06/23 10:47:03;;;;;;;;;4.67;4.00;;;;;27.14;50.85;98638.38;4724329;29;101968;-80
2021/06/23 10:49:50;;;;;;;;;7.00;7.00;;;;;27.19;50.72;98652.16;4798151;29;103638;-80
2021/06/23 10:52:41;;;;;;;;;5.00;5.00;;;;;27.21;50.34;98654.63;4786084;29;102074;-81
2021/06/23 10:55:22;;;;;;;;;5.00;5.00;;;;;27.22;50.86;98656.28;4803051;29;102444;-81
2021/06/23 10:58:08;;;;;;;;;7.00;7.00;;;;;27.20;50.54;98641.88;4821310;29;101924;-81
2021/06/23 11:00:49;;;;;;;;;5.00;5.00;;;;;27.15;50.40;98633.66;4798541;29;103631;-80
2021/06/23 11:03:17;;;;;;;;;4.67;4.67;;;;;27.12;50.74;98626.75;4812096;29;104686;-81
2021/06/23 11:05:51;;;;;;;;;5.00;5.00;;;;;27.21;50.37;98646.28;4765964;29;102575;-80
2021/06/23 11:08:25;;;;;;;;;8.00;7.00;;;;;27.21;50.82;98644.34;4774758;29;103040;-82
2021/06/23 11:10:54;;;;;;;;;4.33;4.33;;;;;27.16;50.43;98636.09;4815928;29;107188;-81
2021/06/23 11:13:27;;;;;;;;;5.67;4.67;;;;;27.24;50.53;98643.75;4819299;28;101788;-80
2021/06/23 11:15:55;;;;;;;;;5.00;5.00;;;;;27.12;50.85;98626.75;5300143;23;103334;-82
2021/06/23 11:29:48;;;;;;;;;7.00;6.00;;;;;27.25;50.80;98639.81;5975639;23;103101;-82
2021/06/23 11:35:18;;;;;;;;;6.00;5.67;;;;;27.24;50.63;98640.13;5158321;23;103369;-87
2021/06/23 11:38:00;;;;;;;;;7.00;6.00;;;;;27.30;50.42;98659.16;5134204;23;102487;-87
2021/06/23 11:46:05;;;;;;;;;6.00;5.33;;;;;27.28;50.45;98660.59;5206549;23;102935;-81
2021/06/23 11:48:36;;;;;;;;;6.00;6.00;;;;;27.24;50.54;98657.63;4890384;28;103093;-83
2021/06/23 11:51:17;;;;;;;;;5.00;5.00;;;;;27.27;50.42;98654.22;4859515;28;101323;-82
2021/06/23 11:53:58;;;;;;;;;6.00;6.00;;;;;27.28;50.75;98655.88;4865393;28;108560;-81
2021/06/23 11:56:25;;;;;;;;;4.33;4.33;;;;;27.26;50.36;98663.66;4893224;28;101906;-82
2021/06/23 11:58:52;;;;;;;;;8.00;6.00;;;;;27.33;50.69;98668.84;4892946;28;101718;-80
2021/06/23 12:01:20;;;;;;;;;6.67;6.00;;;;;27.24;50.73;98656.78;4882071;28;102293;-82
2021/06/23 12:03:49;;;;;;;;;5.33;3.00;;;;;27.24;50.52;98648.47;4855432;28;104608;-82
2021/06/23 12:06:30;;;;;;;;;6.33;6.33;;;;;27.28;50.68;98649.50;4856169;28;102224;-80
2021/06/23 12:09:06;;;;;;;;;5.67;5.00;;;;;27.33;50.73;98655.75;4870120;23;101748;-82
2021/06/23 12:11:34;;;;;;;;;4.00;3.00;;;;;27.33;50.62;98658.50;4843360;28;102001;-80
2021/06/23 12:14:02;;;;;;;;;6.67;6.67;;;;;27.32;50.31;98650.50;4865384;28;101774;-81
2021/06/23 12:16:30;;;;;;;;;6.67;5.00;;;;;27.30;50.88;98648.03;4855276;28;101766;-80
2021/06/23 12:18:59;;;;;;;;;5.33;5.00;;;;;27.29;50.47;98651.94;4858246;28;101358;-81
2021/06/23 12:21:26;;;;;;;;;9.33;9.00;;;;;27.31;50.57;98641.34;4842107;28;102314;-81
2021/06/23 12:24:07;;;;;;;;;6.33;6.33;;;;;27.27;50.74;98623.66;4813755;28;108585;-80
2021/06/23 12:26:48;;;;;;;;;6.00;4.67;;;;;27.25;50.68;98612.03;4845640;28;101773;-81
2021/06/23 12:29:29;;;;;;;;;7.00;6.33;;;;;27.32;50.54;98629.13;4847726;28;101368;-81
2021/06/23 12:32:10;;;;;;;;;8.00;7.00;;;;;27.28;50.45;98614.22;4833195;28;102090;-83
2021/06/23 12:34:51;;;;;;;;;6.67;6.33;;;;;27.35;50.69;98630.44;4816720;28;103727;-82
2021/06/23 12:37:33;;;;;;;;;6.67;5.00;;;;;27.33;50.70;98622.41;4828315;28;102010;-81
2021/06/23 12:40:14;;;;;;;;;5.67;5.67;;;;;27.30;50.71;98620.28;4821888;28;109233;-80
2021/06/23 12:42:55;;;;;;;;;6.00;6.00;;;;;27.31;50.74;98624.69;4839341;28;102537;-82
2021/06/23 12:45:37;;;;;;;;;7.33;7.33;;;;;27.37;50.52;98626.25;4837217;28;107945;-83
2021/06/23 12:48:18;;;;;;;;;6.67;6.00;;;;;27.39;50.52;98637.03;4844415;28;102380;-82
2021/06/23 12:50:59;;;;;;;;;6.00;4.67;;;;;27.36;50.39;98635.69;4802121;29;102001;-84
2021/06/23 12:53:40;;;;;;;;;6.67;5.67;;;;;27.40;50.36;98633.13;4810180;28;106035;-81
2021/06/23 12:56:21;;;;;;;;;6.67;6.67;;;;;27.39;50.53;98626.75;4857720;28;103874;-83
2021/06/23 12:59:02;;;;;;;;;7.00;6.67;;;;;27.37;50.35;98625.41;4833524;28;101756;-81
2021/06/23 13:01:43;;;;;;;;;6.00;6.00;;;;;27.41;50.29;98638.38;4812688;28;102416;-82
2021/06/23 13:04:25;;;;;;;;;5.33;5.33;;;;;27.35;50.36;98622.94;4844110;28;102358;-82
2021/06/23 13:07:06;;;;;;;;;7.00;7.00;;;;;27.34;50.38;98624.06;4841123;28;109194;-83
2021/06/23 13:09:50;;;;;;;;;6.00;6.00;;;;;27.41;50.41;98630.03;4833742;28;102120;-82
2021/06/23 13:12:32;;;;;;;;;5.67;5.67;;;;;27.43;50.55;98638.03;4833592;28;101660;-80
2021/06/23 13:15:16;;;;;;;;;6.00;6.00;;;;;27.41;50.53;98637.56;4831239;28;101435;-81
2021/06/23 13:18:01;;;;;;;;;8.67;7.33;;;;;27.40;50.66;98633.94;4833208;28;108217;-84
2021/06/23 13:20:42;;;;;;;;;7.00;5.00;;;;;27.46;50.20;98646.59;4756449;28;102065;-82